Time;durP1;ratioP1;P1;durP2;ratioP2;P2;SDS_P1;SDS_P2;PMS_P1;PMS_P2;Temp;Humidity;BMP_temperature;BMP_pressure;BME280_temperature;BME280_humidity;BME280_pressure;Samples;Min_cycle;Max_cycle;Signal;HPM_P1;HPM_P2
2023/07/07 00:01:42;;;;;;;;;44.00;36.50;;;;;19.37;69.61;101458.09;6190786;23;45293;-79
2023/07/07 00:04:08;;;;;;;;;26.25;24.25;;;;;19.35;71.13;101464.56;6161127;23;45230;-79
2023/07/07 00:06:33;;;;;;;;;45.00;37.75;;;;;19.41;71.72;101477.56;6186678;23;45431;-80
2023/07/07 00:08:59;;;;;;;;;33.25;29.25;;;;;19.27;70.67;101471.34;6185895;23;46453;-80
2023/07/07 00:11:25;;;;;;;;;25.75;23.75;;;;;19.25;71.98;101467.91;6187312;23;45348;-79
2023/07/07 00:13:54;;;;;;;;;31.25;27.75;;;;;19.29;72.33;101476.59;6187300;23;45552;-79
2023/07/07 00:16:20;;;;;;;;;31.25;28.25;;;;;19.15;72.18;101453.47;6158828;23;45315;-79
2023/07/07 00:18:46;;;;;;;;;25.50;24.25;;;;;19.24;72.55;101479.59;6184658;23;45268;-79
2023/07/07 00:21:12;;;;;;;;;22.25;19.50;;;;;19.17;72.20;101469.47;6184613;23;45351;-79
2023/07/07 00:23:38;;;;;;;;;34.50;30.75;;;;;19.14;72.39;101472.38;6185313;23;45310;-79
2023/07/07 00:26:09;;;;;;;;;20.75;20.75;;;;;19.06;72.99;101464.88;6158572;23;45310;-79
2023/07/07 00:28:35;;;;;;;;;25.00;25.00;;;;;18.94;73.58;101460.41;6154389;23;45383;-79
2023/07/07 00:31:01;;;;;;;;;22.25;22.00;;;;;19.01;72.52;101476.91;6157286;23;45222;-79
2023/07/07 00:33:27;;;;;;;;;26.00;22.25;;;;;19.06;72.66;101482.78;6158048;23;45273;-79
2023/07/07 00:35:53;;;;;;;;;33.75;30.50;;;;;19.02;72.64;101484.81;6157175;23;44655;-79
2023/07/07 00:38:19;;;;;;;;;26.00;23.25;;;;;18.96;73.27;101471.84;6154271;23;45408;-79
2023/07/07 00:40:45;;;;;;;;;24.25;23.00;;;;;19.00;73.54;101488.56;6156163;23;45410;-79
2023/07/07 00:43:16;;;;;;;;;25.50;24.75;;;;;18.97;74.71;101489.66;6152897;23;45434;-80
2023/07/07 00:45:43;;;;;;;;;23.00;22.25;;;;;18.92;74.70;101481.06;6155631;23;45237;-79
2023/07/07 00:48:12;;;;;;;;;30.50;26.75;;;;;18.90;73.82;101483.00;6152056;23;45391;-79
2023/07/07 00:50:45;;;;;;;;;24.50;22.00;;;;;18.90;76.15;101482.16;6154224;23;45247;-79
2023/07/07 00:53:10;;;;;;;;;23.00;20.00;;;;;18.73;76.21;101457.41;6154640;23;45290;-79
2023/07/07 00:55:48;;;;;;;;;25.50;23.00;;;;;18.79;76.25;101463.28;6154770;23;45283;-79
2023/07/07 00:58:18;;;;;;;;;22.00;18.00;;;;;18.80;75.27;101479.28;6154631;23;45226;-79
2023/07/07 01:00:49;;;;;;;;;25.75;22.75;;;;;18.73;76.91;101467.25;6154790;23;45254;-79
2023/07/07 01:03:24;;;;;;;;;21.25;20.75;;;;;18.77;77.17;101474.13;6151872;23;45274;-79
2023/07/07 01:05:53;;;;;;;;;28.00;24.75;;;;;18.72;76.59;101471.75;6154794;23;45222;-79
2023/07/07 01:08:18;;;;;;;;;25.50;23.50;;;;;18.69;77.08;101469.28;6152422;23;47395;-79
2023/07/07 01:10:44;;;;;;;;;24.25;23.50;;;;;18.68;76.84;101461.38;6152800;23;45330;-79
2023/07/07 01:13:10;;;;;;;;;28.75;26.75;;;;;18.47;77.24;101433.38;6152983;23;45330;-79
2023/07/07 01:15:47;;;;;;;;;23.50;20.75;;;;;18.61;77.26;101454.75;6155428;23;45269;-79
2023/07/07 01:18:33;;;;;;;;;27.00;21.25;;;;;18.61;76.80;101469.00;6154384;23;45860;-79
2023/07/07 01:21:12;;;;;;;;;20.00;20.00;;;;;18.55;77.25;101453.31;6153636;23;45295;-80
2023/07/07 01:23:59;;;;;;;;;25.00;22.00;;;;;18.56;76.51;101457.72;6154593;23;45294;-80
2023/07/07 01:26:45;;;;;;;;;24.75;21.00;;;;;18.54;77.95;101458.81;6154498;23;45323;-79
2023/07/07 01:29:14;;;;;;;;;18.50;17.50;;;;;18.51;76.94;101457.19;6152041;23;47211;-79
2023/07/07 01:32:11;;;;;;;;;23.50;19.00;;;;;18.44;76.91;101450.53;6154347;23;45313;-79
2023/07/07 01:34:36;;;;;;;;;20.75;20.00;;;;;18.45;78.11;101462.97;6144368;23;45254;-79
2023/07/07 01:37:02;;;;;;;;;17.00;17.00;;;;;18.42;78.22;101455.09;6153467;23;45211;-79
2023/07/07 01:39:28;;;;;;;;;15.50;15.50;;;;;18.38;77.44;101458.13;6154394;23;45318;-79
2023/07/07 01:42:07;;;;;;;;;18.50;17.50;;;;;18.22;77.71;101435.06;6153949;23;45250;-79
2023/07/07 01:44:45;;;;;;;;;18.50;16.75;;;;;18.29;76.80;101446.22;6154164;23;45239;-79
2023/07/07 01:47:11;;;;;;;;;20.25;17.50;;;;;18.28;77.61;101452.53;6152403;23;45440;-79
2023/07/07 01:49:40;;;;;;;;;21.75;18.00;;;;;18.26;78.05;101451.78;6151731;23;46966;-79
2023/07/07 01:52:17;;;;;;;;;23.50;18.50;;;;;18.23;78.06;101452.84;6150397;23;45545;-79
2023/07/07 01:54:59;;;;;;;;;12.75;12.25;;;;;18.17;77.24;101447.06;6151775;23;45409;-79
2023/07/07 01:57:27;;;;;;;;;19.75;19.00;;;;;18.17;77.45;101453.28;6157885;23;45479;-79
2023/07/07 01:59:54;;;;;;;;;24.25;21.50;;;;;18.18;77.52;101452.31;6160151;23;45221;-79
2023/07/07 02:02:20;;;;;;;;;12.50;12.50;;;;;18.14;77.46;101447.28;6157540;23;45325;-80
2023/07/07 02:04:45;;;;;;;;;15.75;14.75;;;;;18.13;78.63;101445.53;6160729;23;45230;-79
2023/07/07 02:07:11;;;;;;;;;18.50;17.25;;;;;18.08;78.71;101436.97;6159213;23;45191;-79
2023/07/07 02:09:37;;;;;;;;;19.75;18.00;;;;;18.00;78.61;101432.16;6159124;23;45378;-79
2023/07/07 02:12:02;;;;;;;;;19.00;16.00;;;;;18.07;79.20;101444.16;6159033;23;45309;-79
2023/07/07 02:14:28;;;;;;;;;13.50;13.50;;;;;17.92;80.71;101425.59;6159391;23;45660;-79
2023/07/07 02:16:53;;;;;;;;;18.25;14.75;;;;;17.88;78.92;101418.75;6159554;23;45288;-79
2023/07/07 02:19:18;;;;;;;;;17.75;15.75;;;;;17.91;79.08;101432.78;6157440;23;46114;-80
2023/07/07 02:21:44;;;;;;;;;11.50;11.50;;;;;17.98;78.86;101442.09;6155890;23;47098;-79
2023/07/07 02:24:09;;;;;;;;;12.50;11.00;;;;;17.90;79.59;101441.75;6156224;23;45338;-79
2023/07/07 02:26:35;;;;;;;;;14.00;13.50;;;;;17.94;79.12;101448.63;6156413;23;45189;-79
2023/07/07 02:29:00;;;;;;;;;13.00;13.00;;;;;17.83;79.55;101427.09;6153855;23;45616;-79
2023/07/07 02:31:25;;;;;;;;;11.25;11.25;;;;;17.87;79.58;101428.59;6153950;23;45381;-79
2023/07/07 02:33:51;;;;;;;;;10.75;9.00;;;;;17.84;80.27;101434.16;6155761;23;45366;-79
2023/07/07 02:36:18;;;;;;;;;13.25;13.25;;;;;17.86;80.42;101442.09;6154493;23;45395;-79
2023/07/07 02:38:44;;;;;;;;;10.25;8.50;;;;;17.88;81.44;101443.69;6153610;23;46986;-79
2023/07/07 02:41:10;;;;;;;;;14.00;10.00;;;;;17.72;79.79;101413.56;6154989;23;45312;-79
2023/07/07 02:43:36;;;;;;;;;10.50;10.50;;;;;17.84;80.10;101439.50;6152836;23;45183;-79
2023/07/07 02:46:01;;;;;;;;;10.25;10.25;;;;;17.75;80.63;101417.84;6153344;23;45243;-79
2023/07/07 02:48:26;;;;;;;;;13.25;13.00;;;;;17.77;79.76;101424.81;6155575;23;45548;-79
2023/07/07 02:51:00;;;;;;;;;14.25;12.75;;;;;17.79;79.85;101436.28;6152598;23;48592;-79
2023/07/07 02:53:29;;;;;;;;;16.50;16.50;;;;;17.76;78.92;101430.28;6156024;23;45610;-79
2023/07/07 02:55:55;;;;;;;;;11.50;11.50;;;;;17.75;79.92;101433.91;6155549;23;45275;-79
2023/07/07 02:58:21;;;;;;;;;14.50;11.00;;;;;17.63;80.01;101412.38;6155678;23;45492;-79
2023/07/07 03:00:46;;;;;;;;;12.50;12.00;;;;;17.68;80.28;101422.75;6153309;23;45415;-79
2023/07/07 03:03:12;;;;;;;;;9.50;9.00;;;;;17.68;79.76;101430.78;6155436;23;45301;-79
2023/07/07 03:05:38;;;;;;;;;13.50;12.25;;;;;17.67;79.57;101434.41;6153927;23;45738;-79
2023/07/07 03:08:03;;;;;;;;;10.75;10.75;;;;;17.70;80.56;101442.25;6153206;23;46891;-79
2023/07/07 03:10:34;;;;;;;;;10.00;9.33;;;;;17.56;79.99;101418.22;6155851;23;45228;-79
2023/07/07 03:12:59;;;;;;;;;10.75;10.75;;;;;17.61;80.37;101432.16;6155077;23;45307;-79
2023/07/07 03:15:29;;;;;;;;;11.50;10.25;;;;;17.61;80.85;101441.03;6154967;23;45409;-79
2023/07/07 03:17:55;;;;;;;;;10.00;9.25;;;;;17.31;81.05;101392.19;6155494;23;45321;-79
2023/07/07 03:20:20;;;;;;;;;9.25;9.25;;;;;17.60;82.23;101436.63;6155194;23;45205;-79
2023/07/07 03:22:45;;;;;;;;;11.50;11.50;;;;;17.57;80.97;101438.69;6154645;23;45337;-79
2023/07/07 03:25:10;;;;;;;;;7.67;7.67;;;;;17.31;83.50;101389.53;6152705;23;53633;-79
2023/07/07 03:27:36;;;;;;;;;9.25;9.25;;;;;17.51;81.36;101426.50;6157678;23;45285;-79
2023/07/07 03:30:02;;;;;;;;;10.50;10.50;;;;;17.41;80.55;101421.88;6158209;23;45376;-79
2023/07/07 03:32:28;;;;;;;;;8.00;8.00;;;;;17.52;80.34;101427.38;6185013;23;45323;-78
2023/07/07 03:34:53;;;;;;;;;10.00;10.00;;;;;17.51;81.51;101425.66;6185088;23;45332;-79
2023/07/07 03:37:19;;;;;;;;;11.25;10.75;;;;;17.42;80.62;101411.09;6184559;23;45655;-79
2023/07/07 03:39:45;;;;;;;;;12.25;11.00;;;;;17.46;81.62;101423.31;6185462;23;45242;-79
2023/07/07 03:42:10;;;;;;;;;11.25;10.00;;;;;17.28;81.35;101399.56;6185755;23;45222;-79
2023/07/07 03:44:35;;;;;;;;;7.00;7.00;;;;;17.47;81.09;101426.84;6158197;23;45518;-79
2023/07/07 03:47:01;;;;;;;;;11.50;11.50;;;;;17.37;79.38;101415.88;6184612;23;46179;-79
2023/07/07 03:49:26;;;;;;;;;10.50;10.50;;;;;17.47;79.59;101440.22;6185276;23;45430;-79
2023/07/07 03:51:52;;;;;;;;;9.00;9.00;;;;;17.46;80.49;101438.47;6184971;23;45384;-79
2023/07/07 03:54:17;;;;;;;;;8.75;8.75;;;;;17.37;81.51;101425.72;6185666;23;45421;-79
2023/07/07 03:56:43;;;;;;;;;8.25;8.25;;;;;17.36;81.46;101430.22;6185614;23;45603;-79
2023/07/07 03:59:08;;;;;;;;;9.50;8.25;;;;;17.40;81.98;101445.09;6185136;23;45148;-80
2023/07/07 04:01:33;;;;;;;;;8.00;8.00;;;;;17.40;82.41;101449.59;6184733;23;45220;-79
2023/07/07 04:03:59;;;;;;;;;8.00;8.00;;;;;17.39;82.68;101447.84;6186791;23;45236;-80
2023/07/07 04:06:24;;;;;;;;;6.67;6.67;;;;;17.33;83.21;101440.25;6188258;23;53996;-79
2023/07/07 04:08:49;;;;;;;;;9.00;7.00;;;;;17.34;82.93;101450.00;6187880;23;45183;-80
2023/07/07 04:11:19;;;;;;;;;5.67;5.67;;;;;17.33;82.88;101445.59;6189193;23;45211;-79
2023/07/07 04:13:46;;;;;;;;;9.33;8.00;;;;;17.33;82.54;101442.91;6160357;23;45357;-79
2023/07/07 04:16:13;;;;;;;;;6.25;6.25;;;;;17.33;82.13;101453.63;6159492;23;45468;-79
2023/07/07 04:18:40;;;;;;;;;12.25;10.75;;;;;17.34;80.91;101458.00;6158515;23;45294;-80
2023/07/07 04:21:12;;;;;;;;;9.00;7.00;;;;;17.30;82.90;101452.00;6185445;23;45314;-79
2023/07/07 04:23:40;;;;;;;;;11.00;7.67;;;;;17.34;83.25;101453.50;6185044;23;45295;-80
2023/07/07 04:26:06;;;;;;;;;8.00;7.67;;;;;17.27;82.46;101446.00;6185178;23;46567;-80
2023/07/07 04:28:35;;;;;;;;;6.33;6.33;;;;;17.30;82.52;101453.81;6185597;23;45298;-80
2023/07/07 04:31:01;;;;;;;;;9.00;7.25;;;;;17.29;82.64;101454.75;6182818;23;45325;-79
2023/07/07 04:33:28;;;;;;;;;9.75;9.25;;;;;17.33;80.51;101457.16;6184930;23;45320;-79
2023/07/07 04:35:55;;;;;;;;;9.25;9.25;;;;;17.35;81.29;101451.69;6156864;23;47158;-79
2023/07/07 04:38:23;;;;;;;;;11.00;9.00;;;;;17.39;82.52;101456.75;6184937;23;45410;-79
2023/07/07 04:40:49;;;;;;;;;10.33;9.00;;;;;17.44;82.71;101461.81;6184865;23;45302;-80
2023/07/07 04:43:14;;;;;;;;;8.75;7.75;;;;;17.39;81.31;101453.22;6184889;23;45246;-79
2023/07/07 04:45:40;;;;;;;;;12.75;12.75;;;;;17.51;79.59;101463.97;6184964;23;45370;-80
2023/07/07 04:48:05;;;;;;;;;12.00;10.00;;;;;17.46;82.31;101439.34;6185449;23;45373;-79
2023/07/07 04:50:34;;;;;;;;;10.00;10.00;;;;;17.52;81.33;101449.63;6185187;23;45421;-79
2023/07/07 04:52:59;;;;;;;;;17.75;17.00;;;;;17.49;79.03;101435.59;6155942;23;45317;-79
2023/07/07 04:55:25;;;;;;;;;12.25;6.75;;;;;17.62;78.74;101444.56;6182995;23;45516;-79
2023/07/07 04:57:50;;;;;;;;;10.50;10.00;;;;;17.74;80.05;101454.44;6158165;23;45183;-80
2023/07/07 05:00:16;;;;;;;;;10.67;9.67;;;;;17.76;80.28;101446.34;6184866;23;45614;-79
2023/07/07 05:02:41;;;;;;;;;10.25;10.25;;;;;17.86;78.71;101450.13;6157273;23;45485;-79
2023/07/07 05:05:07;;;;;;;;;14.25;11.25;;;;;17.94;77.77;101456.66;6184617;23;45515;-80
2023/07/07 05:07:32;;;;;;;;;15.50;14.00;;;;;17.99;79.21;101453.69;6185310;23;45292;-79
2023/07/07 05:09:57;;;;;;;;;11.50;11.00;;;;;18.05;78.94;101461.28;6185070;23;45232;-79
2023/07/07 05:12:23;;;;;;;;;10.00;10.00;;;;;18.06;80.69;101450.47;6184870;23;44737;-80
2023/07/07 05:14:48;;;;;;;;;12.25;10.25;;;;;18.13;76.86;101459.78;6184546;23;46873;-79
2023/07/07 05:17:13;;;;;;;;;17.50;14.25;;;;;18.09;76.09;101444.94;6184858;23;45275;-79
2023/07/07 05:19:39;;;;;;;;;14.00;14.00;;;;;18.17;76.59;101447.06;6184747;23;45222;-80
2023/07/07 05:22:04;;;;;;;;;18.00;17.00;;;;;18.22;78.26;101456.47;6157098;23;45389;-79
2023/07/07 05:24:30;;;;;;;;;18.75;16.50;;;;;18.20;80.03;101445.03;6185329;23;45493;-79
2023/07/07 05:26:55;;;;;;;;;16.25;16.00;;;;;18.28;75.71;101447.19;6157490;23;45575;-79
2023/07/07 05:29:22;;;;;;;;;14.00;14.00;;;;;18.41;76.43;101476.66;6157264;23;45257;-79
2023/07/07 05:31:48;;;;;;;;;12.25;12.25;;;;;18.34;77.51;101445.91;6157958;23;45338;-80
2023/07/07 05:34:13;;;;;;;;;18.25;18.25;;;;;18.57;75.01;101472.84;6184575;23;46270;-79
2023/07/07 05:36:38;;;;;;;;;14.50;12.50;;;;;18.68;75.35;101472.94;6185124;23;45220;-79
2023/07/07 05:39:06;;;;;;;;;6.25;6.25;;;;;18.70;76.04;101460.31;6186045;23;45234;-79
2023/07/07 05:41:32;;;;;;;;;20.00;19.00;;;;;18.88;70.54;101476.06;6157560;23;45277;-79
2023/07/07 05:43:57;;;;;;;;;19.75;18.50;;;;;18.99;70.49;101478.81;6158710;23;46766;-79
2023/07/07 05:46:22;;;;;;;;;15.50;15.00;;;;;19.02;70.08;101463.38;6158879;23;45351;-79
2023/07/07 05:48:48;;;;;;;;;16.00;16.00;;;;;19.18;69.48;101474.69;6186114;23;45469;-79
2023/07/07 05:51:15;;;;;;;;;16.25;15.50;;;;;19.29;70.51;101467.69;6158321;23;45304;-78
2023/07/07 05:53:43;;;;;;;;;23.25;22.75;;;;;19.36;70.79;101472.50;6189604;23;45306;-78
2023/07/07 05:56:18;;;;;;;;;44.67;38.00;;;;;19.47;68.87;101467.22;6161200;23;45226;-78
2023/07/07 05:58:44;;;;;;;;;35.25;32.50;;;;;19.53;68.69;101474.84;6190665;23;45259;-79
2023/07/07 06:01:10;;;;;;;;;33.75;30.75;;;;;19.53;71.33;101449.84;6163371;23;45303;-78
2023/07/07 06:03:39;;;;;;;;;35.75;33.00;;;;;19.75;67.02;101468.75;6189526;23;46277;-79
2023/07/07 06:06:04;;;;;;;;;27.00;26.75;;;;;19.75;68.31;101448.13;6160376;23;45313;-79
2023/07/07 06:08:29;;;;;;;;;33.25;30.75;;;;;19.95;67.27;101461.88;6186517;23;45331;-79
2023/07/07 06:10:55;;;;;;;;;34.50;31.25;;;;;19.91;63.73;101442.44;6158672;23;45535;-79
2023/07/07 06:13:23;;;;;;;;;35.50;32.50;;;;;20.16;65.10;101461.06;6186131;23;45310;-79
2023/07/07 06:15:50;;;;;;;;;37.75;33.75;;;;;20.25;65.12;101467.59;6186281;23;45179;-79
2023/07/07 06:18:15;;;;;;;;;30.50;30.00;;;;;20.34;65.53;101458.84;6159118;23;45287;-80
2023/07/07 06:20:49;;;;;;;;;27.75;26.75;;;;;20.31;64.38;101451.03;6186323;23;45153;-79
2023/07/07 06:23:15;;;;;;;;;23.50;23.50;;;;;20.47;65.23;101451.53;6186138;23;46142;-79
2023/07/07 06:25:40;;;;;;;;;37.00;33.25;;;;;20.60;62.99;101462.19;6186158;23;45413;-79
2023/07/07 06:28:05;;;;;;;;;44.67;39.00;;;;;20.76;62.00;101470.75;6158619;23;45229;-79
2023/07/07 06:30:33;;;;;;;;;29.00;29.00;;;;;20.81;61.90;101457.78;6185794;23;45186;-79
2023/07/07 06:32:59;;;;;;;;;49.25;41.25;;;;;20.94;63.43;101466.59;6185684;23;46060;-79
2023/07/07 06:35:27;;;;;;;;;34.50;32.75;;;;;20.86;63.30;101447.53;6158733;23;45428;-79
2023/07/07 06:37:52;;;;;;;;;45.50;40.50;;;;;21.12;60.88;101465.16;6185323;23;45352;-80
2023/07/07 06:40:17;;;;;;;;;24.75;24.75;;;;;21.22;62.09;101467.97;6184789;23;45230;-80
2023/07/07 06:42:43;;;;;;;;;26.75;25.50;;;;;21.22;61.00;101446.44;6184674;23;45702;-80
2023/07/07 06:45:08;;;;;;;;;39.33;36.33;;;;;21.45;58.84;101474.16;6184866;23;50519;-80
2023/07/07 06:47:34;;;;;;;;;24.00;24.00;;;;;21.46;60.69;101460.59;6159160;23;45421;-80
2023/07/07 06:49:59;;;;;;;;;47.00;40.00;;;;;21.60;58.37;101464.81;6158853;23;45417;-81
2023/07/07 06:52:24;;;;;;;;;38.33;35.33;;;;;21.63;58.87;101461.84;6158319;23;47812;-80
2023/07/07 06:54:57;;;;;;;;;44.00;38.67;;;;;21.81;59.97;101471.13;6185575;23;46098;-80
2023/07/07 06:57:22;;;;;;;;;45.00;38.33;;;;;21.96;59.08;101474.38;6158562;23;45411;-79
2023/07/07 06:59:48;;;;;;;;;46.33;39.33;;;;;22.01;58.93;101472.16;6186304;23;45342;-79
2023/07/07 07:02:16;;;;;;;;;49.00;42.33;;;;;22.16;57.64;101471.72;6185584;23;45276;-79
2023/07/07 07:04:42;;;;;;;;;47.67;40.67;;;;;22.17;58.18;101456.41;6186122;23;45331;-79
2023/07/07 07:07:14;;;;;;;;;52.75;45.25;;;;;22.34;56.92;101469.31;6185570;23;45514;-79
2023/07/07 07:09:41;;;;;;;;;51.33;44.33;;;;;22.51;56.38;101481.34;6185922;23;45214;-79
2023/07/07 07:12:13;;;;;;;;;42.67;38.00;;;;;22.70;57.85;101478.78;6185797;23;46283;-79
2023/07/07 07:14:38;;;;;;;;;56.00;47.75;;;;;22.62;56.13;101447.03;6185652;23;45140;-79
2023/07/07 07:17:08;;;;;;;;;48.00;41.50;;;;;22.74;56.44;101445.16;6186216;23;45283;-79
2023/07/07 07:19:38;;;;;;;;;59.00;49.00;;;;;23.13;55.34;101471.31;6158123;23;45358;-79
2023/07/07 07:22:07;;;;;;;;;61.00;50.75;;;;;22.70;53.86;101385.25;6185131;23;45595;-79
2023/07/07 07:24:37;;;;;;;;;46.75;39.75;;;;;22.82;54.90;101397.63;6158707;23;45271;-79
2023/07/07 07:27:53;;;;;;;;;35.25;30.50;;;;;23.17;54.44;101418.75;6158586;23;45298;-80
2023/07/07 07:30:28;;;;;;;;;40.67;36.67;;;;;23.46;54.39;101423.41;6160663;23;45259;-80
2023/07/07 07:33:12;;;;;;;;;59.80;49.80;;;;;23.33;52.69;101388.50;6152235;23;45454;-80
2023/07/07 07:39:26;;;;;;;;;;;;;;;;;;;;;
2023/07/07 07:42:04;;;;;;;;;70.80;56.00;;;;;24.11;51.55;101472.22;6164619;23;71818;-82
2023/07/07 07:44:34;;;;;;;;;66.67;54.33;;;;;23.90;54.42;101435.50;6160849;23;46209;-81
2023/07/07 07:47:11;;;;;;;;;66.60;55.40;;;;;23.95;52.18;101427.84;6159781;23;45302;-81
2023/07/07 07:50:03;;;;;;;;;72.25;62.00;;;;;24.06;51.67;101427.66;6161223;23;45287;-80
2023/07/07 07:53:01;;;;;;;;;68.60;53.80;;;;;24.24;53.06;101443.06;6187547;23;45270;-79
2023/07/07 07:55:57;;;;;;;;;78.60;69.20;;;;;24.50;50.96;101491.09;6159010;23;46687;-80
2023/07/07 07:58:38;;;;;;;;;73.80;64.60;;;;;24.38;51.31;101431.75;6150990;23;45271;-80
2023/07/07 08:01:18;;;;;;;;;80.60;70.40;;;;;24.50;50.76;101416.22;6158372;23;45300;-80
2023/07/07 08:04:00;;;;;;;;;75.80;62.20;;;;;24.68;51.90;101408.19;6159125;23;45321;-81
2023/07/07 08:06:26;;;;;;;;;72.00;60.00;;;;;24.86;52.23;101404.59;6156467;23;46217;-81
2023/07/07 08:09:12;;;;;;;;;136.33;108.33;;;;;25.36;49.53;101433.94;6184220;23;45476;-81
2023/07/07 08:11:40;;;;;;;;;80.25;75.00;;;;;25.79;49.66;101476.59;6157739;23;45333;-81
2023/07/07 08:14:33;;;;;;;;;;;;;;;;;;;;;
2023/07/07 08:17:17;;;;;;;;;157.20;103.00;;;;;25.47;49.53;101382.25;6183962;23;74819;-81
2023/07/07 08:19:53;;;;;;;;;137.60;64.40;;;;;25.60;47.79;101390.03;6156233;23;45374;-81
2023/07/07 08:22:24;;;;;;;;;252.80;58.00;;;;;26.00;48.12;101452.75;6156382;23;45451;-81
2023/07/07 08:25:20;;;;;;;;;;;;;;;;;;;;;
2023/07/07 08:27:58;;;;;;;;;0.00;0.00;;;;;26.26;46.21;101444.69;6183148;23;74871;-80
2023/07/07 08:31:08;;;;;;;;;3522.67;3522.67;;;;;26.20;46.63;101404.63;6149875;23;45400;-80
2023/07/07 08:34:08;;;;;;;;;3522.67;3522.67;;;;;26.50;45.70;101409.59;6153449;23;45289;-80
2023/07/07 08:37:12;;;;;;;;;3502.67;3502.67;;;;;26.54;44.48;101402.81;6155207;23;45323;-80
2023/07/07 08:40:11;;;;;;;;;3537.33;3537.33;;;;;26.95;45.89;101481.78;6152570;23;45468;-80
2023/07/07 08:43:09;;;;;;;;;3494.50;3494.50;;;;;26.92;45.43;101499.25;6147946;23;45290;-80
2023/07/07 08:45:35;;;;;;;;;3159.00;3146.75;;;;;26.93;45.72;101484.66;6153129;23;45254;-80
2023/07/07 08:48:30;;;;;;;;;3464.25;3464.25;;;;;26.63;45.59;101441.72;6153203;23;45494;-80
2023/07/07 08:51:14;;;;;;;;;3524.25;3524.25;;;;;26.63;46.36;101449.84;6178411;23;47995;-80
2023/07/07 08:54:07;;;;;;;;;3522.67;3522.67;;;;;26.86;45.19;101479.00;6177990;23;45250;-80
2023/07/07 08:57:17;;;;;;;;;;;;;;;;;;;;;
2023/07/07 09:00:17;;;;;;;;;3467.50;3467.50;;;;;26.75;44.13;101448.56;6140996;23;71731;-80
2023/07/07 09:03:10;;;;;;;;;3509.33;3509.33;;;;;26.90;46.35;101484.97;6177525;23;47996;-80
2023/07/07 09:06:12;;;;;;;;;3494.50;3494.50;;;;;26.91;45.79;101481.25;6177564;23;45331;-80
2023/07/07 09:09:18;;;;;;;;;;;;;;;;;;;;;
2023/07/07 09:12:02;;;;;;;;;3494.50;3494.50;;;;;26.63;46.21;101463.44;6153827;23;72814;-80
2023/07/07 09:14:55;;;;;;;;;3473.50;3473.50;;;;;26.25;46.38;101422.13;6177584;23;45360;-80
2023/07/07 09:20:57;;;;;;;;;3472.75;3472.75;;;;;26.40;44.84;101434.13;6154561;23;45441;-80
2023/07/07 09:23:30;;;;;;;;;3528.00;3528.00;;;;;26.70;46.75;101480.78;6156070;23;45507;-80
2023/07/07 09:26:20;;;;;;;;;3531.00;3531.00;;;;;26.21;45.23;101390.91;6183454;23;46558;-80
2023/07/07 09:29:16;;;;;;;;;3522.67;3522.67;;;;;26.26;46.32;101376.88;6186849;22;45450;-80
2023/07/07 09:31:54;;;;;;;;;3498.00;3498.00;;;;;26.83;46.54;101419.63;6191733;22;45312;-80
2023/07/07 09:34:53;;;;;;;;;;;;;;;;;;;;;
2023/07/07 09:38:15;;;;;;;;;3476.75;3476.75;;;;;27.99;46.24;101464.13;6199194;22;75188;-80
2023/07/07 09:41:52;;;;;;;;;3463.75;3463.75;;;;;28.38;43.45;101459.72;6214567;22;45281;-81
2023/07/07 09:45:05;;;;;;;;;;;;;;;;;;;;;
2023/07/07 09:48:08;;;;;;;;;;;;;;;;;;;;;
2023/07/07 09:50:58;;;;;;;;;3461.75;3461.75;;;;;29.35;42.52;101449.44;6214073;22;75128;-81
2023/07/07 09:53:42;;;;;;;;;3471.50;3471.50;;;;;29.35;41.51;101432.25;6210066;22;45265;-80
2023/07/07 10:00:17;;;;;;;;;3439.40;3439.40;;;;;29.01;41.08;101396.28;6092035;23;45466;-80
2023/07/07 10:03:03;;;;;;;;;3456.50;3456.50;;;;;28.99;41.85;101401.91;6149865;22;46074;-81
2023/07/07 10:05:52;;;;;;;;;3448.20;3448.20;;;;;28.99;42.82;101417.41;6212239;22;45465;-80
2023/07/07 10:11:59;;;;;;;;;;;;;;;;;;;;;
2023/07/07 10:14:49;;;;;;;;;3448.25;3448.25;;;;;29.09;43.49;101453.47;6213798;22;75216;-81
2023/07/07 10:17:58;;;;;;;;;3467.67;3467.67;;;;;29.03;41.88;101449.53;6183836;22;45339;-81
2023/07/07 10:21:01;;;;;;;;;3434.50;3434.50;;;;;28.90;41.90;101452.84;6214601;22;45316;-81
2023/07/07 10:23:43;;;;;;;;;3447.25;3447.25;;;;;28.29;43.46;101360.09;6189033;22;45724;-81
2023/07/07 10:26:49;;;;;;;;;;;;;;;;;;;;;
2023/07/07 10:29:36;;;;;;;;;3479.50;3479.50;;;;;28.82;42.73;101438.41;6213738;22;71470;-81
2023/07/07 10:32:29;;;;;;;;;3455.20;3455.20;;;;;28.25;42.26;101340.53;6187833;22;45444;-81
2023/07/07 10:35:24;;;;;;;;;3459.00;3459.00;;;;;28.44;43.96;101386.41;6215182;22;45508;-81
2023/07/07 10:37:54;;;;;;;;;3460.25;3460.25;;;;;28.46;42.35;101364.47;6213699;22;47164;-81
2023/07/07 10:40:40;;;;;;;;;3457.75;3457.75;;;;;28.39;44.58;101337.09;6214849;22;45249;-81
2023/07/07 10:43:41;;;;;;;;;3444.50;3444.50;;;;;28.63;44.52;101365.28;6214817;22;45247;-81
2023/07/07 10:46:55;;;;;;;;;3447.00;3447.00;;;;;28.78;44.23;101377.16;6215373;22;45587;-82
2023/07/07 10:50:02;;;;;;;;;;;;;;;;;;;;;
2023/07/07 10:53:27;;;;;;;;;3428.50;3428.50;;;;;29.06;44.06;101377.53;6210225;22;72508;-82
2023/07/07 10:56:37;;;;;;;;;3460.33;3460.33;;;;;29.26;41.41;101396.00;6068921;23;45494;-81
2023/07/07 10:59:54;;;;;;;;;3457.75;3457.75;;;;;29.41;43.14;101405.13;6093369;23;45279;-82
2023/07/07 11:02:56;;;;;;;;;;;;;;;;;;;;;
2023/07/07 11:06:06;;;;;;;;;3452.50;3452.50;;;;;29.10;42.69;101329.81;6213834;22;72498;-82
2023/07/07 11:08:45;;;;;;;;;3448.25;3448.25;;;;;29.59;41.79;101401.25;6214415;22;45419;-81
2023/07/07 11:11:24;;;;;;;;;3457.75;3457.75;;;;;29.73;41.86;101406.78;6216773;22;45270;-82
2023/07/07 11:13:59;;;;;;;;;3454.00;3454.00;;;;;29.77;42.03;101399.06;6213893;22;46693;-82
2023/07/07 11:16:34;;;;;;;;;3432.20;3432.20;;;;;29.83;41.96;101404.69;6188896;22;45316;-81
2023/07/07 11:19:51;;;;;;;;;3453.80;3453.80;;;;;29.88;41.77;101404.09;6215877;22;45353;-81
2023/07/07 11:23:02;;;;;;;;;3423.50;3423.50;;;;;29.59;42.42;101331.19;6142799;22;45370;-82
2023/07/07 11:26:04;;;;;;;;;3444.50;3444.50;;;;;30.05;41.86;101363.91;6215560;22;47207;-82
2023/07/07 11:29:09;;;;;;;;;3436.50;3436.50;;;;;30.18;41.76;101364.09;6184941;22;45282;-82
2023/07/07 11:31:54;;;;;;;;;3448.00;3448.00;;;;;30.53;40.10;101390.72;6214316;22;45295;-82
2023/07/07 11:34:41;;;;;;;;;3432.20;3432.20;;;;;30.64;39.23;101390.25;6220531;22;45160;-82
2023/07/07 11:37:17;;;;;;;;;3442.00;3442.00;;;;;30.69;39.01;101374.16;6217850;22;47373;-82
2023/07/07 11:40:15;;;;;;;;;3420.40;3420.40;;;;;30.77;39.69;101373.19;6192996;22;45257;-82
2023/07/07 11:43:31;;;;;;;;;;;;;;;;;;;;;
2023/07/07 11:46:21;;;;;;;;;3419.00;3419.00;;;;;30.75;40.13;101339.78;6217466;22;72466;-82
2023/07/07 11:49:25;;;;;;;;;3421.75;3421.75;;;;;30.84;40.17;101344.09;6210152;22;46206;-81
2023/07/07 11:52:35;;;;;;;;;3420.60;3420.60;;;;;30.51;40.37;101308.16;6215373;22;45245;-81
2023/07/07 11:59:15;;;;;;;;;3430.00;3430.00;;;;;30.68;38.31;101334.22;6097219;23;45290;-81
2023/07/07 12:02:34;;;;;;;;;3450.75;3450.75;;;;;30.15;39.30;101266.25;6130105;23;46680;-81
2023/07/07 12:05:32;;;;;;;;;3430.50;3430.50;;;;;30.22;40.13;101286.28;6212877;22;45368;-80
2023/07/07 12:11:23;;;;;;;;;3421.75;3421.75;;;;;30.50;39.67;101324.75;6215671;22;45464;-81
2023/07/07 12:14:36;;;;;;;;;3435.00;3435.00;;;;;30.34;39.63;101296.53;6186175;22;45723;-81
2023/07/07 12:17:32;;;;;;;;;3454.00;3454.00;;;;;30.43;39.02;101305.53;6213417;22;45497;-81
2023/07/07 12:20:20;;;;;;;;;3425.00;3425.00;;;;;30.44;38.48;101316.25;6213262;22;45342;-81
2023/07/07 12:23:18;;;;;;;;;3421.75;3421.75;;;;;30.18;39.09;101246.75;6215657;22;45324;-81